Time;durP1;ratioP1;P1;durP2;ratioP2;P2;SDS_P1;SDS_P2;PMS_P1;PMS_P2;Temp;Humidity;BMP_temperature;BMP_pressure;BME280_temperature;BME280_humidity;BME280_pressure;Samples;Min_cycle;Max_cycle;Signal;HPM_P1;HPM_P2
2023/06/30 00:00:34;;;;;;;9.50;6.57;;;;;;;;;;5088493;28;20505;-72
2023/06/30 00:03:00;;;;;;;7.73;7.00;;;;;;;;;;5088520;28;20455;-70
2023/06/30 00:05:26;;;;;;;8.43;7.67;;;;;;;;;;5090753;28;20936;-70
2023/06/30 00:07:54;;;;;;;7.63;6.97;;;;;;;;;;5092920;28;20432;-70
2023/06/30 00:10:21;;;;;;;9.70;7.40;;;;;;;;;;5092700;28;20455;-70
2023/06/30 00:12:47;;;;;;;8.60;7.10;;;;;;;;;;5093173;28;20468;-70
2023/06/30 00:15:13;;;;;;;7.67;6.60;;;;;;;;;;5093027;28;20439;-70
2023/06/30 00:17:39;;;;;;;7.53;6.93;;;;;;;;;;5089834;28;20498;-69
2023/06/30 00:20:06;;;;;;;21.23;6.70;;;;;;;;;;5088787;28;20540;-69
2023/06/30 00:22:35;;;;;;;12.13;7.90;;;;;;;;;;5091762;28;20466;-70
2023/06/30 00:25:02;;;;;;;11.67;7.30;;;;;;;;;;5092897;28;20940;-70
2023/06/30 00:27:28;;;;;;;21.40;10.00;;;;;;;;;;5092861;28;20424;-69
2023/06/30 00:29:54;;;;;;;30.17;11.90;;;;;;;;;;5093328;28;20416;-69
2023/06/30 00:32:20;;;;;;;13.27;10.20;;;;;;;;;;5092006;28;20451;-70
2023/06/30 00:34:46;;;;;;;18.27;11.17;;;;;;;;;;5091488;28;20551;-70
2023/06/30 00:37:12;;;;;;;17.27;10.07;;;;;;;;;;5091455;28;20435;-70
2023/06/30 00:39:38;;;;;;;16.53;10.20;;;;;;;;;;5092110;28;20432;-70
2023/06/30 00:42:04;;;;;;;14.13;10.60;;;;;;;;;;5092112;28;20455;-70
2023/06/30 00:44:30;;;;;;;17.10;12.40;;;;;;;;;;5092184;28;20819;-70
2023/06/30 00:47:00;;;;;;;20.17;12.33;;;;;;;;;;5091441;28;20440;-70
2023/06/30 00:49:26;;;;;;;23.13;13.60;;;;;;;;;;5076148;28;20473;-70
2023/06/30 00:51:52;;;;;;;20.20;12.47;;;;;;;;;;5071875;28;20445;-70
2023/06/30 00:54:18;;;;;;;23.23;13.00;;;;;;;;;;5070851;28;21028;-70
2023/06/30 00:56:44;;;;;;;36.27;15.07;;;;;;;;;;5054076;28;20457;-70
2023/06/30 00:59:10;;;;;;;23.07;13.87;;;;;;;;;;5071234;28;20438;-70
2023/06/30 01:01:46;;;;;;;16.80;12.90;;;;;;;;;;5071881;28;20427;-70
2023/06/30 01:04:17;;;;;;;27.97;13.37;;;;;;;;;;5070761;28;20456;-70
2023/06/30 01:06:48;;;;;;;17.07;13.13;;;;;;;;;;5070203;28;20459;-70
2023/06/30 01:09:16;;;;;;;20.40;13.63;;;;;;;;;;5071357;28;20447;-70
2023/06/30 01:11:42;;;;;;;20.60;13.80;;;;;;;;;;5071562;28;20441;-70
2023/06/30 01:14:09;;;;;;;19.33;11.93;;;;;;;;;;5053183;28;20481;-70
2023/06/30 01:16:36;;;;;;;34.03;13.80;;;;;;;;;;5071381;28;20414;-70
2023/06/30 01:19:04;;;;;;;16.63;13.30;;;;;;;;;;5070463;28;20440;-70
2023/06/30 01:21:30;;;;;;;15.10;13.20;;;;;;;;;;5071376;28;20504;-70
2023/06/30 01:24:05;;;;;;;18.20;13.53;;;;;;;;;;5071289;28;20476;-70
2023/06/30 01:26:34;;;;;;;22.13;14.03;;;;;;;;;;5071412;28;20424;-70
2023/06/30 01:29:00;;;;;;;16.20;12.70;;;;;;;;;;5071300;28;20461;-70
2023/06/30 01:31:27;;;;;;;17.03;14.20;;;;;;;;;;5071555;28;20520;-70
2023/06/30 01:33:53;;;;;;;15.90;12.33;;;;;;;;;;5068668;28;20479;-70
2023/06/30 01:36:19;;;;;;;19.13;13.27;;;;;;;;;;5071642;28;20425;-70
2023/06/30 01:38:45;;;;;;;15.53;11.97;;;;;;;;;;5071186;28;20552;-70
2023/06/30 01:41:11;;;;;;;28.83;15.33;;;;;;;;;;5071460;28;20509;-70
2023/06/30 01:43:38;;;;;;;16.67;14.50;;;;;;;;;;5069804;28;20468;-70
2023/06/30 01:46:04;;;;;;;20.13;14.60;;;;;;;;;;5053377;28;20825;-70
2023/06/30 01:48:31;;;;;;;25.50;15.20;;;;;;;;;;5069047;28;20488;-70
2023/06/30 01:50:58;;;;;;;18.27;15.17;;;;;;;;;;5053073;28;20516;-70
2023/06/30 01:53:25;;;;;;;24.13;15.53;;;;;;;;;;5071482;28;20472;-70
2023/06/30 01:55:54;;;;;;;26.03;14.97;;;;;;;;;;5070624;28;20437;-70
2023/06/30 01:58:20;;;;;;;19.80;15.10;;;;;;;;;;5052529;28;20437;-70
2023/06/30 02:00:46;;;;;;;16.03;13.00;;;;;;;;;;5069386;28;20469;-70
2023/06/30 02:03:12;;;;;;;17.57;13.57;;;;;;;;;;5069937;28;20476;-70
2023/06/30 02:05:38;;;;;;;23.10;15.40;;;;;;;;;;5070395;28;20948;-70
2023/06/30 02:08:04;;;;;;;23.40;15.47;;;;;;;;;;5070254;28;20528;-70
2023/06/30 02:10:31;;;;;;;26.60;16.30;;;;;;;;;;5069914;28;20456;-70
2023/06/30 02:12:57;;;;;;;19.93;15.17;;;;;;;;;;5071019;28;20464;-70
2023/06/30 02:15:23;;;;;;;23.83;16.80;;;;;;;;;;5070430;28;20524;-70
2023/06/30 02:17:49;;;;;;;22.03;15.17;;;;;;;;;;5069405;28;20449;-70
2023/06/30 02:20:15;;;;;;;22.23;16.30;;;;;;;;;;5068754;28;20720;-70
2023/06/30 02:22:41;;;;;;;21.83;15.37;;;;;;;;;;5069064;28;20956;-70
2023/06/30 02:25:07;;;;;;;30.10;17.47;;;;;;;;;;5070250;28;20494;-70
2023/06/30 02:27:33;;;;;;;20.37;15.70;;;;;;;;;;5069528;28;20428;-70
2023/06/30 02:30:05;;;;;;;23.53;16.30;;;;;;;;;;5069917;28;20433;-70
2023/06/30 02:32:31;;;;;;;23.57;15.93;;;;;;;;;;5068310;28;20445;-70
2023/06/30 02:34:57;;;;;;;22.10;15.50;;;;;;;;;;5069248;28;20540;-70
2023/06/30 02:37:23;;;;;;;22.87;15.97;;;;;;;;;;5051833;28;20591;-70
2023/06/30 02:39:49;;;;;;;23.10;16.37;;;;;;;;;;5050388;28;20502;-70
2023/06/30 02:42:15;;;;;;;24.77;16.40;;;;;;;;;;5069634;28;20937;-70
2023/06/30 02:44:41;;;;;;;24.90;16.73;;;;;;;;;;5069922;28;20774;-70
2023/06/30 02:47:07;;;;;;;19.70;15.50;;;;;;;;;;5068715;28;20472;-70
2023/06/30 02:49:33;;;;;;;21.40;15.50;;;;;;;;;;5068761;28;20501;-70
2023/06/30 02:51:59;;;;;;;15.70;14.10;;;;;;;;;;5069148;28;20442;-70
2023/06/30 02:54:25;;;;;;;22.13;15.30;;;;;;;;;;5069609;28;20487;-70
2023/06/30 02:56:51;;;;;;;24.10;16.00;;;;;;;;;;5069254;28;20426;-70
2023/06/30 02:59:17;;;;;;;18.83;15.60;;;;;;;;;;5069147;28;20516;-70
2023/06/30 03:01:44;;;;;;;33.10;14.03;;;;;;;;;;5068698;28;20437;-70
2023/06/30 03:04:10;;;;;;;18.63;14.03;;;;;;;;;;5070205;28;20433;-70
2023/06/30 03:06:36;;;;;;;22.77;14.17;;;;;;;;;;5051478;28;20445;-70
2023/06/30 03:09:02;;;;;;;21.10;14.03;;;;;;;;;;5069401;28;20471;-70
2023/06/30 03:11:29;;;;;;;20.97;16.30;;;;;;;;;;5070056;28;20500;-70
2023/06/30 03:13:55;;;;;;;19.87;15.10;;;;;;;;;;5068370;28;20568;-70
2023/06/30 03:16:21;;;;;;;21.27;15.60;;;;;;;;;;5069072;28;20528;-70
2023/06/30 03:18:47;;;;;;;20.20;13.60;;;;;;;;;;5069023;28;20429;-70
2023/06/30 03:21:13;;;;;;;18.30;14.77;;;;;;;;;;5069443;28;20422;-70
2023/06/30 03:23:41;;;;;;;25.47;14.93;;;;;;;;;;5069336;28;20441;-70
2023/06/30 03:26:08;;;;;;;24.17;15.17;;;;;;;;;;5067604;28;20437;-70
2023/06/30 03:28:35;;;;;;;22.33;15.57;;;;;;;;;;5068950;28;20520;-70
2023/06/30 03:31:01;;;;;;;24.50;14.77;;;;;;;;;;5068020;28;20437;-70
2023/06/30 03:33:28;;;;;;;22.03;15.20;;;;;;;;;;5069413;28;20920;-69
2023/06/30 03:35:53;;;;;;;17.57;14.63;;;;;;;;;;5069142;28;20437;-70
2023/06/30 03:38:19;;;;;;;22.73;15.30;;;;;;;;;;5068811;28;20529;-70
2023/06/30 03:40:45;;;;;;;16.47;13.60;;;;;;;;;;5049298;28;20198;-70
2023/06/30 03:43:11;;;;;;;21.13;15.87;;;;;;;;;;5068499;28;20278;-70
2023/06/30 03:45:38;;;;;;;21.07;14.63;;;;;;;;;;5067958;28;20190;-70
2023/06/30 03:48:04;;;;;;;29.30;14.93;;;;;;;;;;5067233;28;20910;-70
2023/06/30 03:50:30;;;;;;;21.67;15.43;;;;;;;;;;5068270;28;20417;-70
2023/06/30 03:52:56;;;;;;;24.70;14.87;;;;;;;;;;5069109;28;20464;-70
2023/06/30 03:55:22;;;;;;;21.13;15.77;;;;;;;;;;5069713;28;21058;-70
2023/06/30 03:57:48;;;;;;;19.70;15.20;;;;;;;;;;5068061;28;20841;-70
2023/06/30 04:00:14;;;;;;;20.23;15.87;;;;;;;;;;5067583;28;20456;-70
2023/06/30 04:02:41;;;;;;;18.90;16.00;;;;;;;;;;5066866;28;21039;-70
2023/06/30 04:05:07;;;;;;;22.50;15.87;;;;;;;;;;5069108;28;20461;-70
2023/06/30 04:07:33;;;;;;;19.67;15.10;;;;;;;;;;5050347;28;20994;-70
2023/06/30 04:09:59;;;;;;;17.80;13.70;;;;;;;;;;5069231;28;20508;-70
2023/06/30 04:12:25;;;;;;;16.03;12.70;;;;;;;;;;5069084;28;20576;-70
2023/06/30 04:14:51;;;;;;;16.03;12.80;;;;;;;;;;5067727;28;20452;-70
2023/06/30 04:17:16;;;;;;;17.03;12.60;;;;;;;;;;5067165;28;20837;-70
2023/06/30 04:19:42;;;;;;;13.53;9.70;;;;;;;;;;5067415;28;20437;-70
2023/06/30 04:22:08;;;;;;;13.43;10.70;;;;;;;;;;5051079;28;20428;-70
2023/06/30 04:24:34;;;;;;;13.50;9.97;;;;;;;;;;5068833;28;20433;-70
2023/06/30 04:27:00;;;;;;;15.13;10.20;;;;;;;;;;5049484;28;20441;-70
2023/06/30 04:29:27;;;;;;;13.87;10.63;;;;;;;;;;5066584;28;20988;-70
2023/06/30 04:31:53;;;;;;;15.97;11.30;;;;;;;;;;5067798;28;20437;-69
2023/06/30 04:34:20;;;;;;;13.30;11.10;;;;;;;;;;5068840;28;20598;-70
2023/06/30 04:36:46;;;;;;;15.27;11.60;;;;;;;;;;5068464;28;20433;-70
2023/06/30 04:39:12;;;;;;;16.47;11.40;;;;;;;;;;5066958;28;20445;-70
2023/06/30 04:41:37;;;;;;;15.50;11.70;;;;;;;;;;5067974;28;20416;-70
2023/06/30 04:44:03;;;;;;;15.73;11.37;;;;;;;;;;5068866;28;20429;-70
2023/06/30 04:46:30;;;;;;;14.30;11.83;;;;;;;;;;5067995;28;20478;-70
2023/06/30 04:48:55;;;;;;;15.20;11.00;;;;;;;;;;5067151;28;20969;-70
2023/06/30 04:51:21;;;;;;;14.87;10.60;;;;;;;;;;5070952;28;20421;-70
2023/06/30 04:53:47;;;;;;;24.50;11.47;;;;;;;;;;5071460;28;20860;-70
2023/06/30 04:56:13;;;;;;;18.17;11.70;;;;;;;;;;5071452;28;20437;-69
2023/06/30 04:58:39;;;;;;;19.53;10.90;;;;;;;;;;5071641;28;20924;-70
2023/06/30 05:01:05;;;;;;;15.10;11.07;;;;;;;;;;5069818;28;20834;-70
2023/06/30 05:03:31;;;;;;;15.67;11.87;;;;;;;;;;5071590;28;20472;-69
2023/06/30 05:05:59;;;;;;;15.83;10.10;;;;;;;;;;5071405;28;20444;-70
2023/06/30 05:08:25;;;;;;;14.23;11.30;;;;;;;;;;5071054;28;20450;-69
2023/06/30 05:10:51;;;;;;;18.90;11.10;;;;;;;;;;5071153;28;20468;-70
2023/06/30 05:13:16;;;;;;;13.03;10.93;;;;;;;;;;5070862;28;20501;-70
2023/06/30 05:15:42;;;;;;;22.10;12.03;;;;;;;;;;5072067;28;20441;-70
2023/06/30 05:18:08;;;;;;;11.60;10.40;;;;;;;;;;5070847;28;20439;-70
2023/06/30 05:20:36;;;;;;;14.40;11.17;;;;;;;;;;5070259;28;20537;-70
2023/06/30 05:23:02;;;;;;;16.40;12.63;;;;;;;;;;5071600;28;20414;-70
2023/06/30 05:25:28;;;;;;;16.43;11.57;;;;;;;;;;5069201;28;20445;-70
2023/06/30 05:27:54;;;;;;;16.10;11.07;;;;;;;;;;5071815;28;20810;-70
2023/06/30 05:30:20;;;;;;;18.60;11.37;;;;;;;;;;5070987;28;20922;-70
2023/06/30 05:32:46;;;;;;;20.50;11.97;;;;;;;;;;5068256;28;20479;-70
2023/06/30 05:35:12;;;;;;;19.77;9.60;;;;;;;;;;5069577;28;20457;-70
2023/06/30 05:37:38;;;;;;;15.17;10.53;;;;;;;;;;5070333;28;20421;-70
2023/06/30 05:40:04;;;;;;;14.80;11.73;;;;;;;;;;5070021;28;20472;-70
2023/06/30 05:42:30;;;;;;;22.17;11.70;;;;;;;;;;5071200;28;20448;-69
2023/06/30 05:44:56;;;;;;;15.77;10.90;;;;;;;;;;5070932;28;20477;-70
2023/06/30 05:47:22;;;;;;;14.37;11.10;;;;;;;;;;5069720;28;20433;-69
2023/06/30 05:49:48;;;;;;;20.90;11.30;;;;;;;;;;5070329;28;20489;-70
2023/06/30 05:52:14;;;;;;;16.23;11.47;;;;;;;;;;5052350;28;20544;-70
2023/06/30 05:54:41;;;;;;;21.30;12.13;;;;;;;;;;5070814;28;20572;-70
2023/06/30 05:57:07;;;;;;;17.13;11.20;;;;;;;;;;5070560;28;20409;-69
2023/06/30 05:59:33;;;;;;;15.07;10.87;;;;;;;;;;5070256;28;20440;-70
2023/06/30 06:01:59;;;;;;;15.10;10.30;;;;;;;;;;5050015;28;20465;-69
2023/06/30 06:04:25;;;;;;;17.67;12.00;;;;;;;;;;5070043;28;20426;-70
2023/06/30 06:06:51;;;;;;;18.43;12.17;;;;;;;;;;5070734;28;20440;-69
2023/06/30 06:09:18;;;;;;;19.87;12.33;;;;;;;;;;5070607;28;20487;-69
2023/06/30 06:11:44;;;;;;;15.93;12.17;;;;;;;;;;5070317;28;20433;-69
2023/06/30 06:14:10;;;;;;;20.80;12.07;;;;;;;;;;5068757;28;20481;-69
2023/06/30 06:16:36;;;;;;;15.37;12.10;;;;;;;;;;5068837;28;20464;-69
2023/06/30 06:19:02;;;;;;;17.60;12.23;;;;;;;;;;5070125;28;20528;-70
2023/06/30 06:21:28;;;;;;;17.87;13.13;;;;;;;;;;5070583;28;20954;-70
2023/06/30 06:23:54;;;;;;;22.40;13.57;;;;;;;;;;5070214;28;20445;-69
2023/06/30 06:26:20;;;;;;;19.93;12.80;;;;;;;;;;5069922;28;20438;-68
2023/06/30 06:28:46;;;;;;;25.40;14.50;;;;;;;;;;5070337;28;20583;-68
2023/06/30 06:31:12;;;;;;;19.33;14.23;;;;;;;;;;5050886;28;20434;-70
2023/06/30 06:33:38;;;;;;;21.23;13.90;;;;;;;;;;5070123;28;21711;-70
2023/06/30 06:36:04;;;;;;;20.00;13.67;;;;;;;;;;5070174;28;20433;-70
2023/06/30 06:38:30;;;;;;;22.80;13.90;;;;;;;;;;5069827;28;20406;-66
2023/06/30 06:40:56;;;;;;;22.20;14.20;;;;;;;;;;5069570;28;20940;-66
2023/06/30 06:43:26;;;;;;;21.30;13.57;;;;;;;;;;5069894;28;20863;-69
2023/06/30 06:45:52;;;;;;;17.20;13.07;;;;;;;;;;5051427;28;20449;-70
2023/06/30 06:48:19;;;;;;;21.70;14.03;;;;;;;;;;5068923;28;20469;-70
2023/06/30 06:50:45;;;;;;;20.53;14.03;;;;;;;;;;5069204;28;20505;-70
2023/06/30 06:53:16;;;;;;;19.70;13.07;;;;;;;;;;5068913;28;20477;-70
2023/06/30 06:55:42;;;;;;;21.50;14.33;;;;;;;;;;5069493;28;20413;-70
2023/06/30 06:58:08;;;;;;;17.53;12.60;;;;;;;;;;5064891;28;20537;-70
2023/06/30 07:00:34;;;;;;;18.60;14.40;;;;;;;;;;5068815;28;20421;-70
2023/06/30 07:03:00;;;;;;;16.57;12.70;;;;;;;;;;5068905;28;20467;-70
2023/06/30 07:05:26;;;;;;;20.90;15.07;;;;;;;;;;5069274;28;20434;-70
2023/06/30 07:07:52;;;;;;;28.40;13.33;;;;;;;;;;5067126;28;20472;-70
2023/06/30 07:10:18;;;;;;;21.50;13.70;;;;;;;;;;5069434;28;20194;-70
2023/06/30 07:12:43;;;;;;;23.23;12.43;;;;;;;;;;5068781;28;20446;-70
2023/06/30 07:15:10;;;;;;;22.90;14.60;;;;;;;;;;5068687;28;20517;-70
2023/06/30 07:17:36;;;;;;;19.40;14.43;;;;;;;;;;5067701;28;20428;-69
2023/06/30 07:20:02;;;;;;;20.07;12.93;;;;;;;;;;5068941;28;20441;-69
2023/06/30 07:22:28;;;;;;;22.60;14.80;;;;;;;;;;5069304;28;20454;-69
2023/06/30 07:24:53;;;;;;;19.70;13.10;;;;;;;;;;5050065;28;20790;-70
2023/06/30 07:27:19;;;;;;;18.57;12.70;;;;;;;;;;5069505;28;20425;-69
2023/06/30 07:29:49;;;;;;;19.70;14.10;;;;;;;;;;5069097;28;20472;-69
2023/06/30 07:32:15;;;;;;;20.77;13.87;;;;;;;;;;5068849;28;20191;-69
2023/06/30 07:34:41;;;;;;;16.60;13.20;;;;;;;;;;5069191;28;20476;-69
2023/06/30 07:37:07;;;;;;;19.47;12.93;;;;;;;;;;5067642;28;20430;-70
2023/06/30 07:39:33;;;;;;;22.10;14.27;;;;;;;;;;5063275;28;20442;-70
2023/06/30 07:41:59;;;;;;;22.90;14.40;;;;;;;;;;5068273;28;20953;-70
2023/06/30 07:44:25;;;;;;;24.17;14.20;;;;;;;;;;5067724;28;20432;-70
2023/06/30 07:46:51;;;;;;;21.60;15.27;;;;;;;;;;5067752;28;21015;-70
2023/06/30 07:49:17;;;;;;;17.40;12.70;;;;;;;;;;5068575;28;20477;-71
2023/06/30 07:51:45;;;;;;;18.33;14.00;;;;;;;;;;5068321;28;20428;-70
2023/06/30 07:54:11;;;;;;;17.33;13.37;;;;;;;;;;5068077;28;20210;-70
2023/06/30 07:56:37;;;;;;;17.40;13.37;;;;;;;;;;5068926;28;20422;-70
2023/06/30 07:59:03;;;;;;;23.07;14.20;;;;;;;;;;5067311;28;20430;-70
2023/06/30 08:01:29;;;;;;;16.73;13.13;;;;;;;;;;5064773;28;20444;-69
2023/06/30 08:03:55;;;;;;;21.20;13.80;;;;;;;;;;5068452;28;20924;-70
2023/06/30 08:06:20;;;;;;;14.67;12.70;;;;;;;;;;5065300;28;20801;-70
2023/06/30 08:08:47;;;;;;;18.47;12.43;;;;;;;;;;5065327;28;20555;-69
2023/06/30 08:11:13;;;;;;;17.17;12.73;;;;;;;;;;5067058;28;20437;-70
2023/06/30 08:13:39;;;;;;;23.10;18.93;;;;;;;;;;5049823;28;20843;-69
2023/06/30 08:16:05;;;;;;;17.87;12.20;;;;;;;;;;5068646;28;20796;-70
2023/06/30 08:18:31;;;;;;;14.63;11.00;;;;;;;;;;5068283;28;20513;-70
2023/06/30 08:20:58;;;;;;;11.33;10.10;;;;;;;;;;5068503;28;20504;-70
2023/06/30 08:23:25;;;;;;;11.90;9.87;;;;;;;;;;5068096;28;20452;-70
2023/06/30 08:25:53;;;;;;;15.53;11.17;;;;;;;;;;5069568;28;20521;-68
2023/06/30 08:28:19;;;;;;;15.70;11.17;;;;;;;;;;5072492;28;20505;-66
2023/06/30 08:30:45;;;;;;;14.17;11.10;;;;;;;;;;5070644;28;20437;-66
2023/06/30 08:33:11;;;;;;;13.00;11.20;;;;;;;;;;5071846;28;20472;-66
2023/06/30 08:35:37;;;;;;;12.10;9.47;;;;;;;;;;5072360;28;20429;-66
2023/06/30 08:38:03;;;;;;;13.77;10.90;;;;;;;;;;5071406;28;20425;-67
2023/06/30 08:40:31;;;;;;;19.00;12.60;;;;;;;;;;5072432;28;20924;-68
2023/06/30 08:43:00;;;;;;;15.40;12.30;;;;;;;;;;5071406;28;20421;-67
2023/06/30 08:45:27;;;;;;;12.13;10.83;;;;;;;;;;5071509;28;20433;-70
2023/06/30 08:47:54;;;;;;;15.90;12.30;;;;;;;;;;5067904;28;20465;-70
2023/06/30 08:50:21;;;;;;;20.37;12.40;;;;;;;;;;5072382;28;20421;-70
2023/06/30 08:52:48;;;;;;;12.30;10.90;;;;;;;;;;5069088;28;20437;-69
2023/06/30 08:55:14;;;;;;;13.83;11.67;;;;;;;;;;5072109;28;20448;-69
2023/06/30 08:57:41;;;;;;;14.37;11.10;;;;;;;;;;5071379;28;20432;-70
2023/06/30 09:00:08;;;;;;;14.17;11.17;;;;;;;;;;5069426;28;20438;-69
2023/06/30 09:02:35;;;;;;;13.20;10.50;;;;;;;;;;5036287;28;20988;-70
2023/06/30 09:05:02;;;;;;;13.70;9.57;;;;;;;;;;5071458;28;20452;-70
2023/06/30 09:07:31;;;;;;;14.23;10.70;;;;;;;;;;5070977;28;20421;-70
2023/06/30 09:10:02;;;;;;;18.20;10.43;;;;;;;;;;5071292;28;20441;-69
2023/06/30 09:12:28;;;;;;;17.87;10.00;;;;;;;;;;5071042;28;20432;-69
2023/06/30 09:14:56;;;;;;;15.90;13.20;;;;;;;;;;5071820;28;20489;-69
2023/06/30 09:17:22;;;;;;;12.40;11.10;;;;;;;;;;5071491;28;20424;-70
2023/06/30 09:19:49;;;;;;;18.70;10.23;;;;;;;;;;5072096;28;20426;-70
2023/06/30 09:22:15;;;;;;;15.47;10.17;;;;;;;;;;5071393;28;20897;-70
2023/06/30 09:24:41;;;;;;;13.10;10.20;;;;;;;;;;5070297;28;20936;-69
2023/06/30 09:27:07;;;;;;;14.60;11.53;;;;;;;;;;5071581;28;20409;-69
2023/06/30 09:29:36;;;;;;;17.10;11.60;;;;;;;;;;5071034;28;20929;-69
2023/06/30 09:32:03;;;;;;;11.73;9.90;;;;;;;;;;5070281;28;20520;-69
2023/06/30 09:34:29;;;;;;;15.30;11.73;;;;;;;;;;5053438;28;20491;-69
2023/06/30 09:36:55;;;;;;;11.20;9.43;;;;;;;;;;5071368;28;20791;-69
2023/06/30 09:39:22;;;;;;;10.70;9.20;;;;;;;;;;5071653;28;21014;-69
2023/06/30 09:41:48;;;;;;;13.20;9.70;;;;;;;;;;5071650;28;20853;-69
2023/06/30 09:44:17;;;;;;;12.30;10.13;;;;;;;;;;5071209;28;20441;-69
2023/06/30 09:46:47;;;;;;;12.23;10.07;;;;;;;;;;5071108;28;20425;-70
2023/06/30 09:49:32;;;;;;;12.17;9.33;;;;;;;;;;5069920;28;20488;-70
2023/06/30 09:51:59;;;;;;;11.10;9.43;;;;;;;;;;5068659;28;20475;-71
2023/06/30 09:54:26;;;;;;;27.13;10.73;;;;;;;;;;5069640;28;20476;-70
2023/06/30 09:56:58;;;;;;;13.40;9.27;;;;;;;;;;5071426;28;20434;-70
2023/06/30 09:59:25;;;;;;;13.40;9.13;;;;;;;;;;5070494;28;20764;-70
2023/06/30 10:01:54;;;;;;;11.17;8.70;;;;;;;;;;5068862;28;20945;-70
2023/06/30 10:04:21;;;;;;;13.30;9.90;;;;;;;;;;5051933;28;20433;-69
2023/06/30 10:06:47;;;;;;;12.20;9.27;;;;;;;;;;5070760;28;20429;-70
2023/06/30 10:09:15;;;;;;;10.23;9.17;;;;;;;;;;5070133;28;20492;-69
2023/06/30 10:11:44;;;;;;;9.47;8.47;;;;;;;;;;5070306;28;20494;-69
2023/06/30 10:14:11;;;;;;;9.60;8.33;;;;;;;;;;5069514;28;20563;-69
2023/06/30 10:16:38;;;;;;;13.87;9.20;;;;;;;;;;5067904;28;20433;-69
2023/06/30 10:19:06;;;;;;;11.23;10.13;;;;;;;;;;5066876;28;20442;-70
2023/06/30 10:21:33;;;;;;;10.87;9.00;;;;;;;;;;5069485;28;20787;-70
2023/06/30 10:24:01;;;;;;;17.97;9.00;;;;;;;;;;5051667;28;21161;-70
2023/06/30 10:26:27;;;;;;;16.37;8.93;;;;;;;;;;5069053;28;20787;-70
2023/06/30 10:28:54;;;;;;;11.33;9.20;;;;;;;;;;5069003;28;20421;-70
2023/06/30 10:31:20;;;;;;;17.60;13.60;;;;;;;;;;5051501;28;20529;-69
2023/06/30 10:33:46;;;;;;;14.50;9.83;;;;;;;;;;5069944;28;20488;-69
2023/06/30 10:36:13;;;;;;;13.80;9.50;;;;;;;;;;5069070;28;20410;-69
2023/06/30 10:38:42;;;;;;;17.33;11.83;;;;;;;;;;5069686;28;20821;-70
2023/06/30 10:41:17;;;;;;;16.53;12.43;;;;;;;;;;5068802;28;20422;-70
2023/06/30 10:44:01;;;;;;;10.33;9.33;;;;;;;;;;5051386;28;20429;-70
2023/06/30 10:46:47;;;;;;;11.30;9.50;;;;;;;;;;5068701;28;20906;-70
2023/06/30 10:49:39;;;;;;;14.00;11.13;;;;;;;;;;5068467;28;20991;-70
2023/06/30 10:52:12;;;;;;;13.67;10.97;;;;;;;;;;5065583;28;20516;-70
2023/06/30 10:54:39;;;;;;;10.07;9.17;;;;;;;;;;5051153;28;20547;-69
2023/06/30 10:57:13;;;;;;;11.60;9.33;;;;;;;;;;5066298;28;20441;-69
2023/06/30 10:59:43;;;;;;;13.70;10.65;;;;;;;;;;5068336;28;20909;-70
2023/06/30 11:02:13;;;;;;;17.03;11.03;;;;;;;;;;5068000;28;20178;-70
2023/06/30 11:04:39;;;;;;;13.57;11.30;;;;;;;;;;5067850;28;20464;-70
2023/06/30 11:07:07;;;;;;;12.47;11.10;;;;;;;;;;5067395;28;20437;-69
2023/06/30 11:09:59;;;;;;;14.27;9.80;;;;;;;;;;5068853;28;20498;-70
2023/06/30 11:12:27;;;;;;;10.90;9.80;;;;;;;;;;5063795;28;20418;-70
2023/06/30 11:14:55;;;;;;;17.00;10.90;;;;;;;;;;5068586;28;20988;-70
2023/06/30 11:17:22;;;;;;;13.30;10.43;;;;;;;;;;5068807;28;20417;-69
2023/06/30 11:20:17;;;;;;;12.30;10.13;;;;;;;;;;5069602;28;20429;-64
2023/06/30 11:22:55;;;;;;;17.27;10.60;;;;;;;;;;5043431;28;20429;-70
2023/06/30 11:25:21;;;;;;;13.80;10.30;;;;;;;;;;5068590;28;20490;-70
2023/06/30 11:27:47;;;;;;;10.53;9.13;;;;;;;;;;5067289;28;20732;-69
2023/06/30 11:30:18;;;;;;;14.97;10.60;;;;;;;;;;5066462;28;20465;-69
2023/06/30 11:32:45;;;;;;;18.97;11.23;;;;;;;;;;5066264;28;20449;-70
2023/06/30 11:35:12;;;;;;;16.50;11.73;;;;;;;;;;5067008;28;20450;-69
2023/06/30 11:37:38;;;;;;;16.13;13.27;;;;;;;;;;5066729;28;20460;-69
2023/06/30 11:40:07;;;;;;;16.33;12.60;;;;;;;;;;5067485;28;20512;-69
2023/06/30 11:42:38;;;;;;;12.43;11.07;;;;;;;;;;5065409;28;20513;-69
2023/06/30 11:45:05;;;;;;;15.73;11.43;;;;;;;;;;5048720;28;20490;-69
2023/06/30 11:47:31;;;;;;;16.23;11.87;;;;;;;;;;5066964;28;20421;-70
2023/06/30 11:49:57;;;;;;;17.20;12.40;;;;;;;;;;5066913;28;20469;-70
2023/06/30 11:52:23;;;;;;;18.40;12.17;;;;;;;;;;5066986;28;20423;-69
2023/06/30 11:54:48;;;;;;;16.27;12.43;;;;;;;;;;5065466;28;20858;-69
2023/06/30 11:57:14;;;;;;;16.87;12.97;;;;;;;;;;5066354;28;20911;-69
2023/06/30 11:59:41;;;;;;;13.03;11.10;;;;;;;;;;5065437;28;21254;-69
2023/06/30 12:02:11;;;;;;;15.10;11.30;;;;;;;;;;5052406;28;20441;-69
2023/06/30 12:04:38;;;;;;;14.73;10.43;;;;;;;;;;5071063;28;20417;-70
2023/06/30 12:07:05;;;;;;;14.40;10.40;;;;;;;;;;5052625;28;20429;-70
2023/06/30 12:09:31;;;;;;;12.97;10.47;;;;;;;;;;5071762;28;20437;-70
2023/06/30 12:11:58;;;;;;;13.50;10.97;;;;;;;;;;5071957;28;20425;-70
2023/06/30 12:14:28;;;;;;;10.67;9.63;;;;;;;;;;5071532;28;20519;-70
2023/06/30 12:16:54;;;;;;;15.03;11.17;;;;;;;;;;5061518;28;20531;-70
2023/06/30 12:19:24;;;;;;;16.30;13.20;;;;;;;;;;5055370;28;20499;-70
2023/06/30 12:21:50;;;;;;;18.07;12.33;;;;;;;;;;5040840;28;20432;-70
2023/06/30 12:24:20;;;;;;;15.07;13.10;;;;;;;;;;5070784;28;20429;-70
2023/06/30 12:26:48;;;;;;;24.10;13.57;;;;;;;;;;5070946;28;20434;-69
2023/06/30 12:29:15;;;;;;;18.53;13.93;;;;;;;;;;5070197;28;20437;-69
2023/06/30 12:31:41;;;;;;;17.27;14.30;;;;;;;;;;5068773;28;20949;-69
2023/06/30 12:34:07;;;;;;;19.17;14.77;;;;;;;;;;5071130;28;20575;-69
2023/06/30 12:36:33;;;;;;;27.97;15.17;;;;;;;;;;5072417;28;20851;-69
2023/06/30 12:38:59;;;;;;;19.50;14.83;;;;;;;;;;5070968;28;20425;-69
2023/06/30 12:41:25;;;;;;;20.20;14.43;;;;;;;;;;5072369;28;20444;-70
2023/06/30 12:43:51;;;;;;;18.47;13.93;;;;;;;;;;5071517;28;20437;-69
2023/06/30 12:46:17;;;;;;;21.47;15.00;;;;;;;;;;5069574;28;20425;-69
2023/06/30 12:48:45;;;;;;;18.23;14.97;;;;;;;;;;5070996;28;20480;-69
2023/06/30 12:51:11;;;;;;;20.00;16.00;;;;;;;;;;5071873;28;20515;-69
2023/06/30 12:53:37;;;;;;;17.97;14.10;;;;;;;;;;5071767;28;20564;-69
2023/06/30 12:56:03;;;;;;;21.20;15.10;;;;;;;;;;5069729;28;20442;-69
2023/06/30 12:58:29;;;;;;;27.33;15.30;;;;;;;;;;5070973;28;20433;-69
2023/06/30 13:00:59;;;;;;;19.17;15.13;;;;;;;;;;5069231;28;20498;-69
2023/06/30 13:03:26;;;;;;;22.40;16.37;;;;;;;;;;5052895;28;20426;-69
2023/06/30 13:05:52;;;;;;;18.53;15.60;;;;;;;;;;5052582;28;20432;-69
2023/06/30 13:08:18;;;;;;;20.03;15.10;;;;;;;;;;5070708;28;20440;-69
2023/06/30 13:10:44;;;;;;;17.87;14.37;;;;;;;;;;5070520;28;20802;-70
2023/06/30 13:13:11;;;;;;;19.73;15.80;;;;;;;;;;5069015;28;20474;-69
2023/06/30 13:15:37;;;;;;;17.97;15.37;;;;;;;;;;5070610;28;20448;-69
2023/06/30 13:18:03;;;;;;;19.97;16.70;;;;;;;;;;5071343;28;20426;-70
2023/06/30 13:20:29;;;;;;;20.73;15.50;;;;;;;;;;5069264;28;20483;-69
2023/06/30 13:22:55;;;;;;;18.13;15.77;;;;;;;;;;5071715;28;20429;-69
2023/06/30 13:25:21;;;;;;;20.40;15.90;;;;;;;;;;5071075;28;20855;-69
2023/06/30 13:27:47;;;;;;;21.30;17.53;;;;;;;;;;5070338;28;20512;-69
2023/06/30 13:30:13;;;;;;;19.20;15.43;;;;;;;;;;5052554;28;20934;-69
2023/06/30 13:32:39;;;;;;;15.90;14.20;;;;;;;;;;5070059;28;20418;-69
2023/06/30 13:35:05;;;;;;;18.40;15.13;;;;;;;;;;5069619;28;20984;-70
2023/06/30 13:37:31;;;;;;;21.43;16.67;;;;;;;;;;5070078;28;20436;-69
2023/06/30 13:39:57;;;;;;;19.10;15.03;;;;;;;;;;5052035;28;20433;-69
2023/06/30 13:42:24;;;;;;;20.33;15.43;;;;;;;;;;5071135;28;20444;-69
2023/06/30 13:44:50;;;;;;;19.63;15.70;;;;;;;;;;5069354;28;20429;-69
2023/06/30 13:47:16;;;;;;;18.83;14.13;;;;;;;;;;5051438;28;20426;-69
2023/06/30 13:49:42;;;;;;;24.03;17.70;;;;;;;;;;5068239;28;20545;-70
2023/06/30 13:52:08;;;;;;;21.00;15.30;;;;;;;;;;5071469;28;20425;-69
2023/06/30 13:54:36;;;;;;;21.77;15.77;;;;;;;;;;5066955;28;20489;-69
2023/06/30 13:57:02;;;;;;;30.77;18.10;;;;;;;;;;5056872;28;20442;-69
2023/06/30 13:59:28;;;;;;;18.53;15.67;;;;;;;;;;5065538;28;20591;-69
2023/06/30 14:01:54;;;;;;;28.67;16.80;;;;;;;;;;5070570;28;20517;-69
2023/06/30 14:04:20;;;;;;;17.63;15.20;;;;;;;;;;5067036;28;20479;-69
2023/06/30 14:06:46;;;;;;;19.97;15.03;;;;;;;;;;5070094;28;20445;-70
2023/06/30 14:09:12;;;;;;;20.00;13.23;;;;;;;;;;5070204;28;20432;-69
2023/06/30 14:11:38;;;;;;;16.30;13.07;;;;;;;;;;5069627;28;20433;-69
2023/06/30 14:14:05;;;;;;;23.20;17.33;;;;;;;;;;5070361;28;20512;-69
2023/06/30 14:16:32;;;;;;;19.50;15.80;;;;;;;;;;5069770;28;20428;-69